createdAt,value
2023-03-06T00:01:17.917Z,8.27
2023-03-06T00:03:45.158Z,7.33
2023-03-06T00:06:11.697Z,6.67
2023-03-06T00:08:38.229Z,8.03
2023-03-06T00:11:05.014Z,7.73
2023-03-06T00:13:32.189Z,9.60
2023-03-06T00:16:00.944Z,6.97
2023-03-06T00:18:27.971Z,7.87
2023-03-06T00:20:55.046Z,7.97
2023-03-06T00:23:21.779Z,11.93
2023-03-06T00:25:48.311Z,7.93
2023-03-06T00:28:15.851Z,7.80
2023-03-06T00:30:43.338Z,8.83
2023-03-06T00:33:10.714Z,7.53
2023-03-06T00:35:39.161Z,7.20
2023-03-06T00:38:05.721Z,8.77
2023-03-06T00:40:32.222Z,9.93
2023-03-06T00:42:58.942Z,9.30
2023-03-06T00:45:25.639Z,9.33
2023-03-06T00:47:52.161Z,8.83
2023-03-06T00:50:18.684Z,9.70
2023-03-06T00:52:45.605Z,8.53
2023-03-06T00:55:13.207Z,8.97
2023-03-06T00:57:39.851Z,9.70
2023-03-06T01:00:06.912Z,11.70
2023-03-06T01:02:33.566Z,10.50
2023-03-06T01:05:00.638Z,11.17
2023-03-06T01:07:33.356Z,10.50
2023-03-06T01:10:00.134Z,7.67
2023-03-06T01:12:26.809Z,11.47
2023-03-06T01:14:53.420Z,8.70
2023-03-06T01:17:19.896Z,10.30
2023-03-06T01:19:46.438Z,8.37
2023-03-06T01:22:12.986Z,9.53
2023-03-06T01:24:39.544Z,10.40
2023-03-06T01:27:06.255Z,13.17
2023-03-06T01:29:32.788Z,11.40
2023-03-06T01:31:59.459Z,10.33
2023-03-06T01:34:26.252Z,9.30
2023-03-06T01:36:52.672Z,10.90
2023-03-06T01:39:19.128Z,10.97
2023-03-06T01:41:45.563Z,11.47
2023-03-06T01:44:13.755Z,10.37
2023-03-06T01:46:42.339Z,11.57
2023-03-06T01:49:14.024Z,13.10
2023-03-06T01:51:54.357Z,11.10
2023-03-06T01:54:34.543Z,12.57
2023-03-06T01:57:22.654Z,11.93
2023-03-06T01:59:55.422Z,11.37
2023-03-06T02:02:22.177Z,10.90
2023-03-06T02:04:48.995Z,11.37
2023-03-06T02:07:17.013Z,10.60
2023-03-06T02:09:43.685Z,14.53
2023-03-06T02:12:17.209Z,12.73
2023-03-06T02:14:44.358Z,11.20
2023-03-06T02:17:13.503Z,12.17
2023-03-06T02:20:00.833Z,10.93
2023-03-06T02:22:34.989Z,12.70
2023-03-06T02:25:26.792Z,13.27
2023-03-06T02:27:54.088Z,13.50
2023-03-06T02:30:21.325Z,12.20
2023-03-06T02:32:48.097Z,12.37
2023-03-06T02:35:20.314Z,13.93
2023-03-06T02:37:48.196Z,11.40
2023-03-06T02:40:18.010Z,11.90
2023-03-06T02:42:48.741Z,14.80
2023-03-06T02:45:23.109Z,16.80
2023-03-06T02:47:50.966Z,13.53
2023-03-06T02:50:19.256Z,13.03
2023-03-06T02:52:48.038Z,14.10
2023-03-06T02:55:16.292Z,12.63
2023-03-06T02:57:44.898Z,13.90
2023-03-06T03:00:13.605Z,13.87
2023-03-06T03:02:42.458Z,13.67
2023-03-06T03:05:11.630Z,14.37
2023-03-06T03:07:40.228Z,14.97
2023-03-06T03:10:09.474Z,14.33
2023-03-06T03:12:39.065Z,13.83
2023-03-06T03:15:07.953Z,14.20
2023-03-06T03:17:41.954Z,15.27
2023-03-06T03:20:14.829Z,15.93
2023-03-06T03:22:44.140Z,16.97
2023-03-06T03:25:11.598Z,14.87
2023-03-06T03:27:38.203Z,14.40
2023-03-06T03:30:05.260Z,15.77
2023-03-06T03:32:31.825Z,14.77
2023-03-06T03:34:58.469Z,15.53
2023-03-06T03:37:25.343Z,15.17
2023-03-06T03:39:51.844Z,17.60
2023-03-06T03:42:18.351Z,18.23
2023-03-06T03:44:44.934Z,16.77
2023-03-06T03:47:11.492Z,19.33
2023-03-06T03:49:38.991Z,15.43
2023-03-06T03:52:05.539Z,17.83
2023-03-06T03:54:32.019Z,16.27
2023-03-06T03:56:58.451Z,17.57
2023-03-06T03:59:25.535Z,15.43
2023-03-06T04:01:52.478Z,16.90
2023-03-06T04:04:19.594Z,16.60
2023-03-06T04:06:46.115Z,17.97
2023-03-06T04:09:12.646Z,16.03
2023-03-06T04:11:39.233Z,18.57
2023-03-06T04:14:08.178Z,17.00
2023-03-06T04:16:34.636Z,16.20
2023-03-06T04:19:01.390Z,17.13
2023-03-06T04:21:28.264Z,17.33
2023-03-06T04:23:54.737Z,17.30
2023-03-06T04:26:21.905Z,20.50
2023-03-06T04:28:48.541Z,16.47
2023-03-06T04:31:15.243Z,15.47
2023-03-06T04:33:41.833Z,17.50
2023-03-06T04:36:09.808Z,17.10
2023-03-06T04:38:36.366Z,15.73
2023-03-06T04:41:03.272Z,16.17
2023-03-06T04:43:29.991Z,18.23
2023-03-06T04:45:58.157Z,17.60
2023-03-06T04:48:24.719Z,15.57
2023-03-06T04:50:51.268Z,17.43
2023-03-06T04:53:19.608Z,17.37
2023-03-06T04:55:46.459Z,17.67
2023-03-06T05:11:30.291Z,19.40
2023-03-06T05:13:56.781Z,20.50
2023-03-06T05:16:23.617Z,18.60
2023-03-06T05:18:50.771Z,19.83
2023-03-06T05:21:17.386Z,17.73
2023-03-06T05:23:44.252Z,37.07
2023-03-06T05:26:12.589Z,28.90
2023-03-06T05:28:39.684Z,64.20
2023-03-06T05:31:07.255Z,145.03
2023-03-06T05:33:35.000Z,148.37
2023-03-06T05:36:03.126Z,103.47
2023-03-06T05:38:29.575Z,57.97
2023-03-06T05:40:56.117Z,76.33
2023-03-06T05:43:22.645Z,47.30
2023-03-06T05:45:50.600Z,74.53
2023-03-06T05:48:17.744Z,73.73
2023-03-06T05:50:44.505Z,70.20
2023-03-06T05:53:11.045Z,34.27
2023-03-06T05:55:37.580Z,46.03
2023-03-06T05:58:04.098Z,25.57
2023-03-06T06:00:30.624Z,29.20
2023-03-06T06:03:00.468Z,25.80
2023-03-06T06:05:27.561Z,23.00
2023-03-06T06:07:54.065Z,21.40
2023-03-06T06:10:20.628Z,33.30
2023-03-06T06:12:47.133Z,25.27
2023-03-06T06:15:15.355Z,19.90
2023-03-06T06:17:41.869Z,22.63
2023-03-06T06:20:11.398Z,21.43
2023-03-06T06:22:38.282Z,23.50
2023-03-06T06:25:06.337Z,22.50
2023-03-06T06:27:32.903Z,22.97
2023-03-06T06:29:59.451Z,21.03
2023-03-06T06:32:25.989Z,22.07
2023-03-06T06:34:52.506Z,21.77
2023-03-06T06:37:18.990Z,21.70
2023-03-06T06:39:45.494Z,20.10
2023-03-06T06:42:29.906Z,25.07
2023-03-06T06:44:58.172Z,19.33
2023-03-06T06:47:25.733Z,19.67
2023-03-06T06:49:54.136Z,19.60
2023-03-06T06:52:21.419Z,20.03
2023-03-06T06:54:48.016Z,20.33
2023-03-06T06:57:15.141Z,20.73
2023-03-06T06:59:41.768Z,22.43
2023-03-06T07:02:11.953Z,19.90
2023-03-06T07:04:44.322Z,18.90
2023-03-06T07:07:16.109Z,20.93
2023-03-06T07:09:42.604Z,23.50
2023-03-06T07:12:09.393Z,20.30
2023-03-06T07:14:36.353Z,22.67
2023-03-06T07:17:02.860Z,24.20
2023-03-06T07:19:29.415Z,21.13
2023-03-06T07:21:55.960Z,19.53
2023-03-06T07:24:22.573Z,20.07
2023-03-06T07:26:49.271Z,18.70
2023-03-06T07:29:16.109Z,21.57
2023-03-06T07:31:42.581Z,21.47
2023-03-06T07:34:12.848Z,20.33
2023-03-06T07:36:40.566Z,22.97
2023-03-06T07:39:08.154Z,25.83
2023-03-06T07:41:34.977Z,25.40
2023-03-06T07:44:01.635Z,20.77
2023-03-06T07:46:28.587Z,24.43
2023-03-06T07:48:55.631Z,25.60
2023-03-06T07:51:22.909Z,21.77
2023-03-06T07:53:49.955Z,19.43
2023-03-06T07:56:16.682Z,21.63
2023-03-06T07:58:44.871Z,20.47
2023-03-06T08:01:15.122Z,20.47
2023-03-06T08:03:41.910Z,23.30
2023-03-06T08:06:19.822Z,23.83
2023-03-06T08:08:47.337Z,21.00
2023-03-06T08:11:15.774Z,20.90
2023-03-06T08:13:42.866Z,19.00
2023-03-06T08:16:10.134Z,20.10
2023-03-06T08:18:39.584Z,19.07
2023-03-06T08:21:12.431Z,20.20
2023-03-06T08:23:39.185Z,18.20
2023-03-06T08:26:08.124Z,20.50
2023-03-06T08:28:34.951Z,19.37
2023-03-06T08:31:13.314Z,20.80
2023-03-06T08:33:40.782Z,18.80
2023-03-06T08:36:07.585Z,18.27
2023-03-06T08:38:34.071Z,18.97
2023-03-06T08:41:00.636Z,21.63
2023-03-06T08:43:27.229Z,21.03
2023-03-06T08:45:57.690Z,17.93
2023-03-06T08:48:24.831Z,19.17
2023-03-06T08:50:52.268Z,19.13
2023-03-06T08:53:18.825Z,21.27
2023-03-06T08:55:45.556Z,22.60
2023-03-06T08:58:12.144Z,19.57
2023-03-06T09:00:39.071Z,20.97
2023-03-06T09:03:06.163Z,22.47
2023-03-06T09:05:32.792Z,23.23
2023-03-06T09:07:59.264Z,23.47
2023-03-06T09:10:26.441Z,40.17
2023-03-06T09:12:55.028Z,27.67
2023-03-06T09:15:22.856Z,21.63
2023-03-06T09:17:50.846Z,23.47
2023-03-06T09:20:18.502Z,24.87
2023-03-06T09:22:45.710Z,26.10
2023-03-06T09:25:20.254Z,22.93
2023-03-06T09:27:55.477Z,26.73
2023-03-06T09:30:28.632Z,29.33
2023-03-06T09:32:55.141Z,26.50
2023-03-06T09:35:21.691Z,27.17
2023-03-06T09:37:48.087Z,29.47
2023-03-06T09:40:23.722Z,25.13
2023-03-06T09:42:50.243Z,25.70
2023-03-06T09:45:17.207Z,26.03
2023-03-06T09:47:48.016Z,24.90
2023-03-06T09:50:58.870Z,22.73
2023-03-06T09:53:47.790Z,23.30
2023-03-06T09:56:22.668Z,23.27
2023-03-06T09:58:53.039Z,22.63
2023-03-06T10:01:32.980Z,24.17
2023-03-06T10:04:37.600Z,22.77
2023-03-06T10:07:11.849Z,22.80
2023-03-06T10:09:57.824Z,26.20
2023-03-06T10:12:25.773Z,25.43
2023-03-06T10:15:00.837Z,21.80
2023-03-06T10:17:41.773Z,22.83
2023-03-06T10:20:22.402Z,22.50
2023-03-06T10:23:01.323Z,22.07
2023-03-06T10:25:38.909Z,23.30
2023-03-06T10:28:16.687Z,25.13
2023-03-06T10:30:51.312Z,23.07
2023-03-06T10:33:33.117Z,26.80
2023-03-06T10:35:59.976Z,26.37
2023-03-06T10:38:38.162Z,24.73
2023-03-06T10:41:10.685Z,25.27
2023-03-06T10:43:42.274Z,27.73
2023-03-06T10:46:11.460Z,29.07
2023-03-06T10:48:41.685Z,27.13
2023-03-06T10:51:19.988Z,26.33
2023-03-06T10:53:55.113Z,26.87
2023-03-06T10:56:34.842Z,28.10
2023-03-06T10:59:26.528Z,26.10
2023-03-06T11:01:55.405Z,27.13
2023-03-06T11:04:25.177Z,33.47
2023-03-06T11:07:23.691Z,26.33
2023-03-06T11:10:12.166Z,32.80
2023-03-06T11:12:40.707Z,29.67
2023-03-06T11:15:07.368Z,28.27
2023-03-06T11:17:42.165Z,34.10
2023-03-06T11:20:14.782Z,35.90
2023-03-06T11:22:41.720Z,34.87
2023-03-06T11:25:18.999Z,38.53
2023-03-06T11:27:47.368Z,33.87
2023-03-06T11:30:41.802Z,34.80
2023-03-06T11:33:18.091Z,37.43
2023-03-06T11:36:09.078Z,36.10
2023-03-06T11:38:51.972Z,33.67
2023-03-06T11:41:38.771Z,32.47
2023-03-06T11:44:13.853Z,31.33
2023-03-06T11:46:44.502Z,35.70
2023-03-06T11:49:20.621Z,34.73
2023-03-06T11:51:59.114Z,35.13
2023-03-06T11:54:25.943Z,33.20
2023-03-06T11:57:02.795Z,36.33
2023-03-06T11:59:56.846Z,31.13
2023-03-06T12:02:33.455Z,35.20
2023-03-06T12:05:22.794Z,37.97
2023-03-06T12:07:57.701Z,34.97
2023-03-06T12:10:31.475Z,34.07
2023-03-06T12:13:27.330Z,36.20
2023-03-06T12:16:02.299Z,33.60
2023-03-06T12:18:54.806Z,28.57
2023-03-06T12:21:31.027Z,31.07
2023-03-06T12:24:15.816Z,31.63
2023-03-06T12:27:25.505Z,29.73
2023-03-06T12:29:56.411Z,30.73
2023-03-06T12:32:38.339Z,30.50
2023-03-06T12:35:35.802Z,31.43
2023-03-06T12:38:26.837Z,33.40
2023-03-06T12:41:12.997Z,30.33
2023-03-06T12:43:48.685Z,33.27
2023-03-06T12:46:25.759Z,32.00
2023-03-06T12:49:31.901Z,30.13
2023-03-06T12:51:59.923Z,28.60
2023-03-06T12:54:29.462Z,30.97
2023-03-06T12:56:58.167Z,26.03
2023-03-06T12:59:44.327Z,29.93
2023-03-06T13:02:14.199Z,24.10
2023-03-06T13:05:00.616Z,24.03
2023-03-06T13:07:46.079Z,25.70
2023-03-06T13:10:21.583Z,26.27
2023-03-06T13:13:01.007Z,23.43
2023-03-06T13:15:39.177Z,25.83
2023-03-06T13:18:23.933Z,28.30
2023-03-06T13:20:54.603Z,24.63
2023-03-06T13:23:30.189Z,22.10
2023-03-06T13:25:58.254Z,24.47
2023-03-06T13:28:46.104Z,26.03
2023-03-06T13:31:26.563Z,24.40
2023-03-06T13:33:59.353Z,23.37
2023-03-06T13:36:29.677Z,21.43
2023-03-06T13:39:12.028Z,23.00
2023-03-06T13:41:38.779Z,24.33
2023-03-06T13:44:20.991Z,21.97
2023-03-06T13:47:05.994Z,22.10
2023-03-06T13:49:33.461Z,23.73
2023-03-06T13:52:09.573Z,20.43
2023-03-06T13:54:58.088Z,24.43
2023-03-06T13:57:46.430Z,21.07
2023-03-06T14:00:32.653Z,21.73
2023-03-06T14:03:42.340Z,22.03
2023-03-06T14:06:34.100Z,22.60
2023-03-06T14:09:05.403Z,25.90
2023-03-06T14:11:32.989Z,21.17
2023-03-06T14:13:59.927Z,24.53
2023-03-06T14:16:32.672Z,24.77
2023-03-06T14:19:04.452Z,29.27
2023-03-06T14:21:38.603Z,28.77
2023-03-06T14:24:05.430Z,25.67
2023-03-06T14:26:33.501Z,31.23
2023-03-06T14:29:01.900Z,26.07
2023-03-06T14:31:42.820Z,27.70
2023-03-06T14:34:21.585Z,24.77
2023-03-06T14:36:50.576Z,30.70
2023-03-06T14:39:27.477Z,28.87
2023-03-06T14:42:16.731Z,27.97
2023-03-06T14:44:43.277Z,28.67
2023-03-06T14:47:28.497Z,28.23
2023-03-06T14:50:25.873Z,29.57
2023-03-06T14:53:04.288Z,28.23
2023-03-06T14:55:33.078Z,28.13
2023-03-06T14:58:11.898Z,26.97
2023-03-06T15:00:43.524Z,24.17
2023-03-06T15:03:24.604Z,25.60
2023-03-06T15:05:51.996Z,25.33
2023-03-06T15:08:22.221Z,22.57
2023-03-06T15:11:00.076Z,21.43
2023-03-06T15:13:29.739Z,18.97
2023-03-06T15:16:08.673Z,22.13
2023-03-06T15:18:39.009Z,20.50
2023-03-06T15:21:25.162Z,18.90
2023-03-06T15:23:53.968Z,22.17
2023-03-06T15:26:23.980Z,19.97
2023-03-06T15:29:09.922Z,20.57
2023-03-06T15:31:38.852Z,19.10
2023-03-06T15:34:11.422Z,20.43
2023-03-06T15:36:42.430Z,17.80
2023-03-06T15:39:27.321Z,18.67
2023-03-06T15:41:58.226Z,21.03
2023-03-06T15:44:25.089Z,20.47
2023-03-06T15:46:56.312Z,19.50
2023-03-06T15:49:26.077Z,21.17
2023-03-06T15:51:52.712Z,22.73
2023-03-06T15:54:19.234Z,20.67
2023-03-06T15:56:47.245Z,20.07
2023-03-06T15:59:25.252Z,19.83
2023-03-06T16:01:52.628Z,18.33
2023-03-06T16:04:19.885Z,21.20
2023-03-06T16:06:46.434Z,19.30
2023-03-06T16:09:13.828Z,19.53
2023-03-06T16:11:44.774Z,20.37
2023-03-06T16:14:21.351Z,21.73
2023-03-06T16:16:48.590Z,23.50
2023-03-06T16:19:27.762Z,27.33
2023-03-06T16:21:56.266Z,23.77
2023-03-06T16:24:23.147Z,25.27
2023-03-06T16:26:51.400Z,27.10
2023-03-06T16:29:23.965Z,28.83
2023-03-06T16:31:51.026Z,51.20
2023-03-06T16:34:19.824Z,32.03
2023-03-06T16:36:47.963Z,30.50
2023-03-06T16:39:20.129Z,32.97
2023-03-06T16:41:47.145Z,141.70
2023-03-06T16:44:13.727Z,37.77
2023-03-06T16:46:42.794Z,35.80
2023-03-06T16:49:17.563Z,137.13
2023-03-06T16:51:45.100Z,30.07
2023-03-06T16:54:12.176Z,134.67
2023-03-06T16:56:38.617Z,132.83
2023-03-06T16:59:05.243Z,91.70
2023-03-06T17:01:31.773Z,37.77
2023-03-06T17:03:59.047Z,81.23
2023-03-06T17:06:25.639Z,94.53
2023-03-06T17:08:52.228Z,56.80
2023-03-06T17:11:20.291Z,29.77
2023-03-06T17:13:47.538Z,25.77
2023-03-06T17:16:18.042Z,26.03
2023-03-06T17:18:45.688Z,30.43
2023-03-06T17:21:15.617Z,25.87
2023-03-06T17:23:42.921Z,25.33
2023-03-06T17:26:19.086Z,25.23
2023-03-06T17:28:46.543Z,27.20
2023-03-06T17:31:16.007Z,27.70
2023-03-06T17:33:42.802Z,26.47
2023-03-06T17:36:10.030Z,32.13
2023-03-06T17:38:36.931Z,25.67
2023-03-06T17:41:07.491Z,29.37
2023-03-06T17:43:34.180Z,28.63
2023-03-06T17:46:05.183Z,33.00
2023-03-06T17:48:31.872Z,35.03
2023-03-06T17:50:58.728Z,33.80
2023-03-06T17:53:25.539Z,30.73
2023-03-06T17:55:52.377Z,34.20
2023-03-06T17:58:18.917Z,46.43
2023-03-06T18:00:45.891Z,46.70
2023-03-06T18:03:12.733Z,37.30
2023-03-06T18:05:39.282Z,38.13
2023-03-06T18:08:08.285Z,31.90
2023-03-06T18:10:34.870Z,40.73
2023-03-06T18:13:01.385Z,31.97
2023-03-06T18:15:28.012Z,32.50
2023-03-06T18:17:56.629Z,34.07
2023-03-06T18:20:23.103Z,30.47
2023-03-06T18:22:49.575Z,27.07
2023-03-06T18:25:16.215Z,26.87
2023-03-06T18:27:42.787Z,30.47
2023-03-06T18:30:10.056Z,30.60
2023-03-06T18:32:36.522Z,32.03
2023-03-06T18:35:03.046Z,31.77
2023-03-06T18:37:30.393Z,31.07
2023-03-06T18:39:56.935Z,27.83
2023-03-06T18:42:24.635Z,33.30
2023-03-06T18:44:51.100Z,33.53
2023-03-06T18:47:17.619Z,32.60
2023-03-06T18:49:45.948Z,35.20
2023-03-06T18:52:12.889Z,34.47
2023-03-06T18:54:39.512Z,35.67
2023-03-06T18:57:06.143Z,36.80
2023-03-06T18:59:32.541Z,33.77
2023-03-06T19:01:59.288Z,34.57
2023-03-06T19:04:26.815Z,33.80
2023-03-06T19:06:54.604Z,33.87
2023-03-06T19:09:21.658Z,35.27
2023-03-06T19:11:48.743Z,38.60
2023-03-06T19:14:16.347Z,32.63
2023-03-06T19:16:42.903Z,34.43
2023-03-06T19:19:09.477Z,36.97
2023-03-06T19:21:35.893Z,38.90
2023-03-06T19:24:03.108Z,39.40
2023-03-06T19:26:29.658Z,41.73
2023-03-06T19:28:56.374Z,39.50
2023-03-06T19:31:25.776Z,38.23
2023-03-06T19:33:53.658Z,35.40
2023-03-06T19:36:23.650Z,36.20
2023-03-06T19:38:54.248Z,37.20
2023-03-06T19:41:20.986Z,42.93
2023-03-06T19:43:52.300Z,40.77
2023-03-06T19:46:20.091Z,38.97
2023-03-06T19:48:47.247Z,37.60
2023-03-06T19:51:13.880Z,37.37
2023-03-06T19:53:40.720Z,40.23
2023-03-06T19:56:10.027Z,34.07
2023-03-06T19:58:36.716Z,38.27
2023-03-06T20:01:08.515Z,34.30
2023-03-06T20:03:35.286Z,39.63
2023-03-06T20:06:02.882Z,35.27
2023-03-06T20:08:29.454Z,36.30
2023-03-06T20:10:56.059Z,36.87
2023-03-06T20:13:22.729Z,40.77
2023-03-06T20:15:49.268Z,36.73
2023-03-06T20:18:15.852Z,47.87
2023-03-06T20:20:42.338Z,43.23
2023-03-06T20:23:08.923Z,40.23
2023-03-06T20:25:36.318Z,42.23
2023-03-06T20:28:03.553Z,40.97
2023-03-06T20:30:37.706Z,42.30
2023-03-06T20:33:05.277Z,42.90
2023-03-06T20:35:31.913Z,45.43
2023-03-06T20:37:59.760Z,45.60
2023-03-06T20:40:26.548Z,39.13
2023-03-06T20:42:53.810Z,42.10
2023-03-06T20:45:20.391Z,44.37
2023-03-06T20:47:47.265Z,38.43
2023-03-06T20:50:15.351Z,43.63
2023-03-06T20:52:41.947Z,41.97
2023-03-06T20:55:08.934Z,39.23
2023-03-06T20:57:35.552Z,44.03
2023-03-06T21:00:02.386Z,43.90
2023-03-06T21:02:30.157Z,44.00
2023-03-06T21:04:56.639Z,46.07
2023-03-06T21:07:23.161Z,52.30
2023-03-06T21:09:49.825Z,49.67
2023-03-06T21:12:16.441Z,49.07
2023-03-06T21:14:43.083Z,48.67
2023-03-06T21:17:09.675Z,55.60
2023-03-06T21:19:36.844Z,50.90
2023-03-06T21:22:03.500Z,49.90
2023-03-06T21:24:30.034Z,47.03
2023-03-06T21:26:56.563Z,50.43
2023-03-06T21:29:23.021Z,46.70
2023-03-06T21:31:49.654Z,44.07
2023-03-06T21:34:16.332Z,44.00
2023-03-06T21:36:43.531Z,44.73
2023-03-06T21:39:10.261Z,43.50
2023-03-06T21:41:38.149Z,43.47
2023-03-06T21:44:05.808Z,54.00
2023-03-06T21:46:32.813Z,51.07
2023-03-06T21:48:59.799Z,46.20
2023-03-06T21:51:27.138Z,40.40
2023-03-06T21:53:54.368Z,41.70
2023-03-06T21:56:22.879Z,45.83
2023-03-06T21:58:49.386Z,42.67
2023-03-06T22:01:18.787Z,42.50
2023-03-06T22:03:46.102Z,41.17
2023-03-06T22:06:15.189Z,45.83
2023-03-06T22:08:42.463Z,43.00
2023-03-06T22:11:14.518Z,40.03
2023-03-06T22:13:42.371Z,47.17
2023-03-06T22:16:09.395Z,47.17
2023-03-06T22:18:36.398Z,54.07
2023-03-06T22:21:09.325Z,48.17
2023-03-06T22:23:36.042Z,55.90
2023-03-06T22:26:11.241Z,53.47
2023-03-06T22:28:38.030Z,52.97
2023-03-06T22:31:12.176Z,53.37
2023-03-06T22:33:38.690Z,54.83
2023-03-06T22:36:11.065Z,58.17
2023-03-06T22:38:39.705Z,58.07
2023-03-06T22:41:06.603Z,56.33
2023-03-06T22:43:33.496Z,58.87
2023-03-06T22:46:02.022Z,51.47
2023-03-06T22:48:28.596Z,49.70
2023-03-06T22:50:55.206Z,46.93
2023-03-06T22:53:21.708Z,45.57
2023-03-06T22:55:48.132Z,49.80
2023-03-06T22:58:14.641Z,46.03
2023-03-06T23:00:41.399Z,49.87
2023-03-06T23:03:08.223Z,53.27
2023-03-06T23:05:34.763Z,56.13
2023-03-06T23:08:01.321Z,53.43
2023-03-06T23:10:27.797Z,57.80
2023-03-06T23:12:54.400Z,57.33
2023-03-06T23:15:20.897Z,53.30
2023-03-06T23:17:47.504Z,49.73
2023-03-06T23:20:14.584Z,51.87
2023-03-06T23:22:41.164Z,46.53
2023-03-06T23:25:08.175Z,43.20
2023-03-06T23:27:35.996Z,46.60
2023-03-06T23:30:04.530Z,48.40
2023-03-06T23:32:33.605Z,48.10
2023-03-06T23:35:00.372Z,49.17
2023-03-06T23:37:26.822Z,45.73
2023-03-06T23:39:53.282Z,45.60
2023-03-06T23:42:20.017Z,44.33
2023-03-06T23:44:46.768Z,47.57
2023-03-06T23:47:13.168Z,44.67
2023-03-06T23:49:40.075Z,46.70
2023-03-06T23:52:06.628Z,45.83
2023-03-06T23:54:34.303Z,44.87
2023-03-06T23:57:01.049Z,45.37
2023-03-06T23:59:27.761Z,43.60
